MST,Max TemperatureF,Mean TemperatureF,Min TemperatureF,Max Dew PointF,MeanDew PointF,Min DewpointF,Max Humidity, Mean Humidity, Min Humidity, Max Sea Level PressureIn, Mean Sea Level PressureIn, Min Sea Level PressureIn, Max VisibilityMiles, Mean VisibilityMiles, Min VisibilityMiles, Max Wind SpeedMPH, Mean Wind SpeedMPH, Max Gust SpeedMPH,PrecipitationIn, CloudCover, Events, WindDirDegrees
2013-1-1,41,31,21,19,16,11,82,54,35,30.24,30.16,30.07,10,10,10,15,6,,0.00,2,,347
2013-1-2,38,26,14,13,9,7,77,51,29,30.27,30.20,30.12,10,10,10,14,7,17,0.00,0,,355
2013-1-3,36,27,18,20,15,8,79,61,47,30.34,30.28,30.21,10,10,10,13,8,20,0.00,5,,342
2013-1-4,36,24,13,18,11,7,93,61,31,30.35,30.27,30.20,10,10,10,14,6,,0.00,2,,350
2013-1-5,43,30,16,20,11,4,96,56,20,30.39,30.32,30.26,10,10,7,10,5,,0.00,2,,333
2013-1-6,46,31,16,15,6,2,56,40,20,30.40,30.29,30.12,10,10,10,16,8,21,0.00,0,,335
2013-1-7,50,36,22,20,17,12,73,49,29,30.12,30.01,29.93,10,10,10,9,6,,0.00,0,,335
2013-1-8,52,38,24,17,14,9,66,42,18,30.24,30.02,29.94,10,10,10,22,11,28,0.00,0,,349
2013-1-9,54,39,24,16,14,12,64,41,20,30.41,30.27,30.15,10,10,10,17,9,22,0.00,0,,344
2013-1-10,50,36,23,26,15,12,61,41,24,30.11,29.96,29.77,10,10,10,24,7,30,0.00,0,,198
2013-1-11,46,34,23,26,7,-7,53,28,12,29.90,29.79,29.65,10,10,10,26,13,39,0.00,1,,296
2013-1-12,34,24,14,21,0,-8,87,41,21,30.02,29.92,29.85,10,10,2,12,7,18,0.00,3,Snow,327
2013-1-13,36,22,8,6,2,-3,75,44,19,30.09,30.00,29.92,10,10,10,17,5,22,0.00,0,,186
2013-1-14,37,26,15,17,7,-1,69,46,28,30.08,29.98,29.89,10,10,5,15,7,26,0.00,4,Snow,296
2013-1-15,32,21,10,9,-1,-8,71,43,18,30.34,30.21,30.09,10,10,10,17,11,25,0.00,1,,358
2013-1-16,43,28,13,10,3,-3,50,37,21,30.43,30.36,30.29,10,10,10,22,10,28,0.00,0,,350
2013-1-17,51,34,18,14,10,6,60,43,21,30.54,30.45,30.38,10,10,10,14,8,17,0.00,0,,351
2013-1-18,52,38,23,17,14,10,60,44,24,30.41,30.33,30.25,10,10,10,12,6,,0.00,0,,319
2013-1-19,55,39,23,17,13,10,64,39,17,30.38,30.31,30.27,10,10,10,20,9,22,0.00,0,,344
2013-1-20,54,38,21,12,10,6,60,36,15,30.34,30.27,30.18,10,10,10,14,9,,0.00,0,,338
2013-1-21,53,38,23,10,7,5,49,31,16,30.33,30.26,30.20,10,10,10,16,8,20,0.00,0,,340
2013-1-22,60,42,24,14,8,5,54,30,11,30.35,30.29,30.22,10,10,10,12,7,18,0.00,0,,330
2013-1-23,61,44,27,10,9,5,44,28,13,30.42,30.34,30.28,10,10,10,12,7,,0.00,0,,321
2013-1-24,62,44,27,33,12,6,46,28,14,30.35,30.28,30.21,10,10,10,15,5,,0.00,2,,326
2013-1-25,63,54,44,38,36,33,75,55,35,30.33,30.24,30.18,10,10,10,17,7,23,0.00,1,,352
2013-1-26,60,52,45,51,43,36,94,76,60,30.18,30.04,29.93,10,10,7,20,6,26,0.05,6,Rain,173
2013-1-27,63,49,35,44,36,32,96,67,30,30.03,29.98,29.93,10,10,10,14,6,22,0.00,2,,197
2013-1-28,61,50,38,38,32,25,91,59,26,29.96,29.86,29.77,10,10,10,26,10,33,0.00,5,Rain,192
2013-1-29,41,35,28,26,10,-4,61,36,15,30.01,29.82,29.74,10,10,10,30,13,46,0.00,2,,301
2013-1-30,50,38,26,15,10,1,60,33,19,30.20,30.14,30.02,10,10,10,28,12,36,0.00,0,,320
2013-1-31,55,40,25,20,17,14,63,42,23,30.30,30.24,30.19,10,10,10,16,7,21,0.00,0,,337